Time;durP1;ratioP1;P1;durP2;ratioP2;P2;SDS_P1;SDS_P2;PMS_P1;PMS_P2;Temp;Humidity;BMP_temperature;BMP_pressure;BME280_temperature;BME280_humidity;BME280_pressure;Samples;Min_cycle;Max_cycle;Signal;HPM_P1;HPM_P2
2024/01/18 00:02:17;;;;;;;61.83;38.25;;;;;;;0.78;100.00;96696.66;5052358;28;20526;-78
2024/01/18 00:04:42;;;;;;;62.05;35.47;;;;;;;1.12;100.00;96744.31;5059421;28;20029;-79
2024/01/18 00:07:08;;;;;;;59.78;36.58;;;;;;;1.10;100.00;96736.72;5067863;28;20036;-79
2024/01/18 00:09:33;;;;;;;61.72;35.38;;;;;;;0.99;100.00;96727.06;5065627;28;20025;-79
2024/01/18 00:11:58;;;;;;;66.13;40.25;;;;;;;1.08;100.00;96735.97;5064922;28;20089;-79
2024/01/18 00:14:24;;;;;;;75.38;43.05;;;;;;;1.09;100.00;96732.47;5052904;28;20032;-79
2024/01/18 00:16:49;;;;;;;76.18;46.60;;;;;;;0.92;100.00;96701.84;5051714;28;20424;-79
2024/01/18 00:19:15;;;;;;;76.60;44.08;;;;;;;0.90;100.00;96691.69;5051409;28;20400;-79
2024/01/18 00:21:40;;;;;;;90.00;49.35;;;;;;;1.05;100.00;96709.69;5050972;28;20458;-79
2024/01/18 00:24:06;;;;;;;79.38;48.47;;;;;;;1.15;100.00;96744.16;5051238;28;20035;-79
2024/01/18 00:26:32;;;;;;;81.53;47.83;;;;;;;1.18;100.00;96756.78;5051069;28;20040;-79
2024/01/18 00:28:58;;;;;;;74.82;45.45;;;;;;;1.11;100.00;96750.38;5049700;28;20033;-79
2024/01/18 00:31:23;;;;;;;77.22;45.33;;;;;;;1.10;100.00;96753.84;5032982;28;20096;-79
2024/01/18 00:33:49;;;;;;;71.28;41.70;;;;;;;0.78;100.00;96702.59;5033367;28;20113;-79
2024/01/18 00:36:14;;;;;;;67.13;38.30;;;;;;;0.94;100.00;96723.09;5033321;28;20028;-79
2024/01/18 00:38:40;;;;;;;77.13;42.38;;;;;;;1.27;100.00;96781.94;5033282;28;20037;-79
2024/01/18 00:41:06;;;;;;;83.88;43.85;;;;;;;1.24;100.00;96779.53;5033442;28;20053;-79
2024/01/18 00:43:31;;;;;;;87.93;44.45;;;;;;;1.01;100.00;96742.31;5033434;28;20113;-79
2024/01/18 00:46:02;;;;;;;95.07;46.45;;;;;;;1.25;100.00;96776.88;5050643;28;20475;-79
2024/01/18 00:48:28;;;;;;;96.65;48.05;;;;;;;1.22;100.00;96765.97;5050633;28;20032;-79
2024/01/18 00:50:53;;;;;;;107.28;51.10;;;;;;;1.12;100.00;96746.88;5050797;28;20029;-79
2024/01/18 00:53:18;;;;;;;103.07;49.30;;;;;;;1.27;100.00;96786.25;5050910;28;20028;-79
2024/01/18 00:55:44;;;;;;;96.53;46.90;;;;;;;1.02;100.00;96756.00;5050608;28;20119;-79
2024/01/18 00:58:09;;;;;;;106.40;49.92;;;;;;;1.20;100.00;96785.75;5050694;28;20514;-79
2024/01/18 01:00:34;;;;;;;89.18;43.72;;;;;;;1.19;100.00;96795.16;5050300;28;20029;-79
2024/01/18 01:03:00;;;;;;;90.15;42.85;;;;;;;1.02;100.00;96761.13;5050406;28;20025;-79
2024/01/18 01:05:26;;;;;;;92.82;45.60;;;;;;;1.05;100.00;96758.38;5050139;28;20444;-79
2024/01/18 01:07:51;;;;;;;81.85;42.53;;;;;;;1.23;100.00;96788.16;5050227;28;20031;-79
2024/01/18 01:10:17;;;;;;;72.25;41.70;;;;;;;1.22;100.00;96789.03;5050320;28;20534;-79
2024/01/18 01:12:42;;;;;;;69.13;37.75;;;;;;;1.06;100.00;96773.69;5050210;28;20025;-79
2024/01/18 01:15:08;;;;;;;68.90;37.97;;;;;;;1.06;100.00;96773.69;5050409;28;20025;-79
2024/01/18 01:17:35;;;;;;;63.10;37.97;;;;;;;1.20;100.00;96783.19;5049925;28;20063;-79
2024/01/18 01:20:01;;;;;;;61.35;37.25;;;;;;;1.07;100.00;96766.81;5050336;28;20444;-79
2024/01/18 01:22:27;;;;;;;63.15;38.63;;;;;;;1.14;100.00;96784.34;5048050;28;20021;-79
2024/01/18 01:24:52;;;;;;;59.85;36.08;;;;;;;1.22;100.00;96812.97;5032832;28;20020;-79
2024/01/18 01:27:17;;;;;;;56.08;34.63;;;;;;;1.10;100.00;96792.28;5033008;28;20038;-79
2024/01/18 01:29:43;;;;;;;68.82;37.08;;;;;;;1.29;100.00;96817.75;5032587;28;20072;-79
2024/01/18 01:32:09;;;;;;;64.18;36.97;;;;;;;1.03;100.00;96768.72;5032874;28;20021;-79
2024/01/18 01:34:34;;;;;;;62.78;35.85;;;;;;;1.19;100.00;96805.44;5032502;28;20064;-79
2024/01/18 01:37:00;;;;;;;55.60;34.22;;;;;;;1.05;100.00;96792.50;5032476;28;20478;-79
2024/01/18 01:39:25;;;;;;;63.03;36.28;;;;;;;1.03;100.00;96780.72;5033987;28;20034;-79
2024/01/18 01:41:51;;;;;;;57.58;33.30;;;;;;;1.03;100.00;96778.97;5036986;28;20109;-79
2024/01/18 01:44:18;;;;;;;57.13;34.30;;;;;;;1.04;100.00;96783.19;5036924;28;20021;-79
2024/01/18 01:46:43;;;;;;;54.97;34.40;;;;;;;1.16;100.00;96809.88;5035779;28;20372;-79
2024/01/18 01:49:09;;;;;;;58.63;35.15;;;;;;;1.27;100.00;96837.53;5036875;28;20026;-79
2024/01/18 01:51:50;;;;;;;61.10;33.70;;;;;;;1.30;100.00;96839.91;5036559;28;20025;-79
2024/01/18 01:54:18;;;;;;;49.22;29.95;;;;;;;1.21;100.00;96828.41;5036748;28;20029;-79
2024/01/18 01:56:46;;;;;;;48.38;29.92;;;;;;;1.24;100.00;96836.75;5036571;28;20025;-79
2024/01/18 01:59:12;;;;;;;48.72;31.15;;;;;;;1.23;100.00;96842.81;5036628;28;20079;-79
2024/01/18 02:01:41;;;;;;;47.47;30.92;;;;;;;1.07;100.00;96812.97;5036297;28;20017;-79
2024/01/18 02:04:06;;;;;;;51.00;31.10;;;;;;;0.98;100.00;96807.41;5036551;28;20047;-79
2024/01/18 02:06:34;;;;;;;50.05;31.80;;;;;;;1.29;100.00;96853.63;5036137;28;20025;-79
2024/01/18 02:09:01;;;;;;;46.33;29.40;;;;;;;1.30;100.00;96856.09;5036314;28;20024;-79
2024/01/18 02:11:27;;;;;;;43.75;28.77;;;;;;;1.04;100.00;96811.38;5036055;28;20025;-79
2024/01/18 02:13:54;;;;;;;46.97;28.35;;;;;;;1.08;100.00;96817.16;5036371;28;20021;-79
2024/01/18 02:16:19;;;;;;;44.15;28.17;;;;;;;1.10;100.00;96823.06;5034934;28;20346;-79
2024/01/18 02:18:46;;;;;;;43.22;28.02;;;;;;;1.16;100.00;96840.66;5035994;28;20076;-79
2024/01/18 02:21:12;;;;;;;43.90;27.25;;;;;;;1.07;100.00;96830.91;5036166;28;20021;-79
2024/01/18 02:23:39;;;;;;;40.63;27.08;;;;;;;1.17;100.00;96861.06;5035958;28;20105;-79
2024/01/18 02:26:05;;;;;;;40.97;26.10;;;;;;;1.24;100.00;96861.56;5034712;28;20021;-79
2024/01/18 02:28:30;;;;;;;42.00;25.73;;;;;;;1.32;100.00;96868.88;5035767;28;20017;-79
2024/01/18 02:30:56;;;;;;;34.55;23.27;;;;;;;1.30;100.00;96870.66;5035658;28;20021;-79
2024/01/18 02:33:21;;;;;;;42.00;25.92;;;;;;;1.24;100.00;96856.44;5034724;28;20090;-79
2024/01/18 02:35:46;;;;;;;34.72;23.13;;;;;;;1.21;100.00;96860.00;5035775;28;20021;-79
2024/01/18 02:38:12;;;;;;;37.53;23.15;;;;;;;1.31;100.00;96878.28;5035268;28;20049;-79
2024/01/18 02:40:38;;;;;;;34.63;22.40;;;;;;;1.07;100.00;96841.97;5035408;28;20559;-79
2024/01/18 02:43:04;;;;;;;34.88;21.98;;;;;;;1.33;100.00;96888.47;5035776;28;20043;-79
2024/01/18 02:45:30;;;;;;;32.55;21.17;;;;;;;1.06;100.00;96840.31;5035804;28;20104;-79
2024/01/18 02:47:55;;;;;;;30.55;20.30;;;;;;;1.05;100.00;96835.25;5035277;28;20054;-79
2024/01/18 02:50:21;;;;;;;28.85;19.15;;;;;;;1.30;100.00;96870.66;5034586;28;20029;-79
2024/01/18 02:52:46;;;;;;;31.48;21.13;;;;;;;1.10;100.00;96844.38;5035060;28;20400;-79
2024/01/18 02:55:12;;;;;;;30.50;18.83;;;;;;;1.25;100.00;96863.22;5035566;28;20026;-79
2024/01/18 02:57:37;;;;;;;32.90;19.52;;;;;;;1.00;100.00;96822.69;5035409;28;20035;-79
2024/01/18 03:00:04;;;;;;;31.05;19.67;;;;;;;1.34;100.00;96870.41;5035920;28;20017;-79
2024/01/18 03:02:29;;;;;;;32.15;19.33;;;;;;;1.30;100.00;96866.34;5034048;28;20040;-79
2024/01/18 03:04:55;;;;;;;26.63;19.70;;;;;;;1.13;100.00;96843.38;5035470;28;20021;-79
2024/01/18 03:07:20;;;;;;;32.42;19.98;;;;;;;1.34;100.00;96874.72;5035568;28;20061;-79
2024/01/18 03:09:45;;;;;;;33.13;21.50;;;;;;;1.27;100.00;96875.97;5035124;28;20071;-78
2024/01/18 03:12:11;;;;;;;31.77;22.05;;;;;;;1.05;100.00;96840.38;5035432;28;20029;-79
2024/01/18 03:14:36;;;;;;;33.80;22.52;;;;;;;1.33;100.00;96885.91;5035248;28;20139;-78
2024/01/18 03:17:02;;;;;;;36.55;23.25;;;;;;;1.24;100.00;96885.47;5035109;28;20417;-79
2024/01/18 03:19:27;;;;;;;35.65;22.17;;;;;;;1.18;100.00;96890.94;5035383;28;20045;-79
2024/01/18 03:21:52;;;;;;;37.33;24.23;;;;;;;1.23;100.00;96893.25;5035143;28;20026;-79
2024/01/18 03:24:18;;;;;;;38.35;24.83;;;;;;;1.23;100.00;96906.06;5034781;28;20026;-79
2024/01/18 03:26:44;;;;;;;39.90;26.08;;;;;;;1.17;100.00;96914.91;5034916;28;20025;-78
2024/01/18 03:29:09;;;;;;;38.55;24.60;;;;;;;1.00;100.00;96889.31;5035014;28;20025;-79
2024/01/18 03:31:35;;;;;;;39.35;25.30;;;;;;;0.98;100.00;96894.53;5034897;28;20491;-78
2024/01/18 03:34:00;;;;;;;41.83;27.00;;;;;;;0.95;100.00;96901.56;5034957;28;20017;-79
2024/01/18 03:36:26;;;;;;;48.83;27.98;;;;;;;1.08;100.00;96923.06;5034818;28;20025;-79
2024/01/18 03:38:51;;;;;;;41.83;26.98;;;;;;;0.91;100.00;96900.88;5034561;28;20018;-78
2024/01/18 03:41:17;;;;;;;45.95;28.98;;;;;;;0.72;100.00;96888.22;5034671;28;20025;-79
2024/01/18 03:43:42;;;;;;;44.35;29.75;;;;;;;0.92;100.00;96917.91;5034378;28;20024;-79
2024/01/18 03:46:13;;;;;;;45.92;29.50;;;;;;;1.06;100.00;96952.28;5035010;28;20029;-79
2024/01/18 03:48:38;;;;;;;47.50;29.15;;;;;;;0.81;100.00;96912.53;5034265;28;20025;-79
2024/01/18 03:51:05;;;;;;;47.15;28.92;;;;;;;0.64;100.00;96912.56;5034823;28;20100;-79
2024/01/18 03:53:30;;;;;;;45.70;28.42;;;;;;;0.81;100.00;96938.16;5034376;28;20029;-79
2024/01/18 03:55:55;;;;;;;49.17;30.08;;;;;;;0.84;100.00;96944.84;5034254;28;20491;-79
2024/01/18 03:58:21;;;;;;;45.40;29.70;;;;;;;0.76;100.00;96937.56;5034698;28;20413;-79
2024/01/18 04:00:46;;;;;;;45.55;27.60;;;;;;;0.97;100.00;96980.03;5033138;28;20073;-79
2024/01/18 04:03:12;;;;;;;47.58;29.95;;;;;;;0.92;100.00;96973.47;5034001;28;20017;-79
2024/01/18 04:05:37;;;;;;;47.38;29.42;;;;;;;0.72;100.00;96942.00;5034112;28;20021;-79
2024/01/18 04:08:02;;;;;;;49.45;31.50;;;;;;;0.81;100.00;96966.34;5034381;28;20049;-79
2024/01/18 04:10:28;;;;;;;46.03;29.67;;;;;;;0.93;100.00;96980.28;5034292;28;20135;-79
2024/01/18 04:12:53;;;;;;;47.25;30.15;;;;;;;0.93;100.00;96985.41;5034106;28;20018;-79
2024/01/18 04:15:19;;;;;;;51.92;31.00;;;;;;;0.96;100.00;96992.91;5034231;28;20033;-79
2024/01/18 04:17:45;;;;;;;50.10;31.23;;;;;;;0.89;100.00;96984.72;5033676;28;20032;-79
2024/01/18 04:20:13;;;;;;;51.45;31.55;;;;;;;0.60;100.00;96940.06;5033956;28;20075;-79
2024/01/18 04:22:39;;;;;;;49.30;31.67;;;;;;;0.97;100.00;97002.28;5034010;28;20036;-79
2024/01/18 04:25:05;;;;;;;52.67;31.83;;;;;;;0.72;100.00;96962.50;5033858;28;20026;-79
2024/01/18 04:27:30;;;;;;;53.90;33.10;;;;;;;0.75;100.00;96977.69;5033933;28;20021;-79
2024/01/18 04:30:05;;;;;;;54.75;32.60;;;;;;;0.97;100.00;97009.97;5033859;28;20044;-79
2024/01/18 04:32:31;;;;;;;57.40;33.53;;;;;;;0.94;100.00;97002.41;5034135;28;20449;-78
2024/01/18 04:34:56;;;;;;;52.65;32.45;;;;;;;0.50;100.00;96943.97;5033818;28;20053;-78
2024/01/18 04:37:22;;;;;;;54.45;33.03;;;;;;;0.92;100.00;97012.72;5033651;28;20064;-79
2024/01/18 04:39:47;;;;;;;53.83;33.97;;;;;;;0.82;100.00;97003.03;5033611;28;20057;-78
2024/01/18 04:42:12;;;;;;;59.05;35.28;;;;;;;0.60;100.00;96981.03;5033270;28;20087;-78
2024/01/18 04:44:39;;;;;;;59.05;35.75;;;;;;;0.90;100.00;97034.22;5033134;28;20025;-78
2024/01/18 04:47:06;;;;;;;55.67;35.13;;;;;;;0.73;100.00;97020.50;5033360;28;20112;-78
2024/01/18 04:49:31;;;;;;;54.80;33.25;;;;;;;0.88;100.00;97038.59;5033232;28;20119;-78
2024/01/18 04:51:57;;;;;;;54.88;33.25;;;;;;;0.67;100.00;97014.84;5032932;28;20059;-78
2024/01/18 04:54:22;;;;;;;58.00;34.20;;;;;;;0.55;100.00;96997.50;5033814;28;20033;-78
2024/01/18 04:56:48;;;;;;;58.58;36.33;;;;;;;0.57;100.00;97011.91;5033083;28;20032;-78
2024/01/18 04:59:13;;;;;;;55.38;35.05;;;;;;;0.69;100.00;97039.50;5033539;28;20127;-78
2024/01/18 05:01:40;;;;;;;58.65;36.45;;;;;;;0.80;100.00;97049.22;5032946;28;20095;-78
2024/01/18 05:04:06;;;;;;;64.05;38.50;;;;;;;0.81;100.00;97050.06;5033325;28;20048;-78
2024/01/18 05:06:31;;;;;;;64.82;36.95;;;;;;;0.48;100.00;97004.69;5033117;28;20449;-78
2024/01/18 05:08:57;;;;;;;62.47;37.92;;;;;;;0.85;100.00;97056.69;5032511;28;20033;-78
2024/01/18 05:11:22;;;;;;;63.22;39.33;;;;;;;0.68;100.00;97045.53;5033169;28;20026;-78
2024/01/18 05:13:48;;;;;;;65.35;38.08;;;;;;;0.80;100.00;97069.72;5032056;28;20033;-78
2024/01/18 05:16:13;;;;;;;67.00;38.42;;;;;;;0.75;100.00;97071.66;5033176;28;20457;-78
2024/01/18 05:18:39;;;;;;;68.47;42.05;;;;;;;0.74;100.00;97070.00;5032792;28;20033;-78
2024/01/18 05:21:04;;;;;;;63.72;39.47;;;;;;;0.49;100.00;97053.25;5033234;28;20132;-78
2024/01/18 05:23:30;;;;;;;68.40;41.28;;;;;;;0.45;100.00;97053.47;5033412;28;20072;-78
2024/01/18 05:25:55;;;;;;;71.78;41.08;;;;;;;0.52;100.00;97074.50;5032761;28;20388;-78
2024/01/18 05:28:20;;;;;;;69.30;40.80;;;;;;;0.47;100.00;97069.63;5033020;28;20465;-78
2024/01/18 05:30:46;;;;;;;67.63;39.65;;;;;;;0.68;100.00;97116.44;5032762;28;20017;-79
2024/01/18 05:33:11;;;;;;;67.25;40.50;;;;;;;0.65;100.00;97101.19;5033097;28;20027;-78
2024/01/18 05:35:36;;;;;;;67.30;39.55;;;;;;;0.69;100.00;97110.41;5032879;28;20113;-78
2024/01/18 05:38:03;;;;;;;64.63;40.17;;;;;;;0.49;100.00;97078.88;5032121;28;20079;-78
2024/01/18 05:40:29;;;;;;;75.25;41.03;;;;;;;0.53;100.00;97094.09;5032661;28;20472;-78
2024/01/18 05:42:54;;;;;;;73.65;43.63;;;;;;;0.50;100.00;97098.44;5032635;28;20049;-78
2024/01/18 05:45:20;;;;;;;74.35;43.13;;;;;;;0.72;100.00;97138.44;5032747;28;20037;-78
2024/01/18 05:47:46;;;;;;;73.18;41.55;;;;;;;0.45;100.00;97107.25;5032372;28;20030;-79
2024/01/18 05:50:12;;;;;;;72.70;41.45;;;;;;;0.65;100.00;97153.25;5032966;28;20475;-78
2024/01/18 05:52:38;;;;;;;71.97;40.47;;;;;;;0.43;100.00;97111.63;5030511;28;20519;-78
2024/01/18 05:55:04;;;;;;;71.40;41.88;;;;;;;0.67;100.00;97150.63;5032420;28;20121;-78
2024/01/18 05:57:29;;;;;;;75.57;41.28;;;;;;;0.67;100.00;97153.19;5032556;28;20037;-78
2024/01/18 05:59:55;;;;;;;74.25;41.60;;;;;;;0.57;100.00;97150.22;5032564;28;20071;-78
2024/01/18 06:02:20;;;;;;;77.30;44.67;;;;;;;0.60;100.00;97165.47;5032730;28;20022;-80
2024/01/18 06:04:47;;;;;;;72.05;41.42;;;;;;;0.59;100.00;97174.06;5032967;28;20018;-80
2024/01/18 06:07:12;;;;;;;70.00;43.65;;;;;;;0.23;100.00;97128.72;5032895;28;20143;-79
2024/01/18 06:09:38;;;;;;;72.53;42.72;;;;;;;0.58;100.00;97189.47;5033055;28;20146;-79
2024/01/18 06:12:04;;;;;;;80.75;48.92;;;;;;;0.49;100.00;97190.72;5032373;28;20025;-79
2024/01/18 06:14:29;;;;;;;72.78;43.50;;;;;;;0.55;100.00;97197.28;5032749;28;20080;-79
2024/01/18 06:16:55;;;;;;;70.88;41.10;;;;;;;0.56;100.00;97193.84;5032349;28;20036;-79
2024/01/18 06:19:21;;;;;;;70.68;40.35;;;;;;;0.46;100.00;97181.47;5032801;28;20053;-78
2024/01/18 06:21:46;;;;;;;68.35;38.72;;;;;;;0.38;100.00;97187.81;5032588;28;20104;-79
2024/01/18 06:24:13;;;;;;;70.93;42.25;;;;;;;0.14;100.00;97161.59;5032900;28;20044;-78
2024/01/18 06:26:38;;;;;;;63.33;36.92;;;;;;;0.21;100.00;97181.75;5035449;28;20029;-78
2024/01/18 06:29:04;;;;;;;66.15;38.78;;;;;;;0.32;100.00;97194.03;5036381;28;20353;-78
2024/01/18 06:31:30;;;;;;;70.13;41.83;;;;;;;0.27;100.00;97190.03;5046966;28;20032;-79
2024/01/18 06:33:58;;;;;;;73.45;40.20;;;;;;;0.45;100.00;97218.19;5052066;28;20021;-79
2024/01/18 06:36:23;;;;;;;72.80;40.92;;;;;;;0.19;100.00;97175.00;5049917;28;20385;-79
2024/01/18 06:38:49;;;;;;;69.75;40.75;;;;;;;0.40;100.00;97229.56;5043886;28;20104;-79
2024/01/18 06:41:15;;;;;;;73.10;40.75;;;;;;;0.27;100.00;97213.91;5035966;28;20028;-79
2024/01/18 06:43:41;;;;;;;69.85;40.60;;;;;;;0.12;100.00;97188.97;5036018;28;20025;-79
2024/01/18 06:46:16;;;;;;;70.18;39.58;;;;;;;0.18;100.00;97209.19;5035781;28;20338;-80
2024/01/18 06:48:42;;;;;;;66.10;37.08;;;;;;;0.41;100.00;97244.00;5035766;28;20021;-79
2024/01/18 06:51:08;;;;;;;71.80;40.15;;;;;;;0.19;100.00;97218.53;5035615;28;20026;-79
2024/01/18 06:53:33;;;;;;;69.05;40.17;;;;;;;0.15;100.00;97215.25;5035585;28;20029;-79
2024/01/18 06:55:59;;;;;;;71.68;40.83;;;;;;;0.13;100.00;97211.13;5035418;28;20483;-79
2024/01/18 06:58:24;;;;;;;69.57;39.63;;;;;;;0.38;100.00;97245.00;5035352;28;20078;-79
2024/01/18 07:00:50;;;;;;;73.53;42.08;;;;;;;0.36;100.00;97249.34;5035496;28;20109;-79
2024/01/18 07:03:15;;;;;;;67.03;41.00;;;;;;;0.38;100.00;97255.22;5035959;28;20028;-79
2024/01/18 07:05:41;;;;;;;70.40;40.75;;;;;;;0.43;100.00;97260.16;5035800;28;20057;-79
2024/01/18 07:08:07;;;;;;;67.15;39.65;;;;;;;0.23;100.00;97227.72;5035034;28;20021;-79
2024/01/18 07:10:32;;;;;;;67.97;40.47;;;;;;;0.35;100.00;97241.72;5035112;28;20502;-79
2024/01/18 07:12:58;;;;;;;75.60;42.85;;;;;;;0.15;100.00;97202.47;5035056;28;20109;-79
2024/01/18 07:15:23;;;;;;;64.95;40.17;;;;;;;0.35;100.00;97234.06;5035256;28;20032;-79
2024/01/18 07:17:48;;;;;;;72.32;42.13;;;;;;;0.14;100.00;97197.44;5035288;28;20032;-79
2024/01/18 07:20:14;;;;;;;65.13;38.25;;;;;;;0.22;100.00;97233.75;5035129;28;20021;-79
2024/01/18 07:22:39;;;;;;;71.20;41.80;;;;;;;0.17;100.00;97217.75;5034993;28;20108;-79
2024/01/18 07:25:05;;;;;;;64.82;39.08;;;;;;;0.32;100.00;97236.75;5035128;28;20030;-79
2024/01/18 07:27:31;;;;;;;63.35;38.08;;;;;;;0.41;100.00;97261.94;5034899;28;20518;-79
2024/01/18 07:29:57;;;;;;;66.40;39.85;;;;;;;0.31;100.00;97250.44;5035056;28;20519;-79
2024/01/18 07:32:23;;;;;;;61.70;36.53;;;;;;;0.30;100.00;97254.75;5034869;28;20025;-79
2024/01/18 07:34:48;;;;;;;61.83;36.92;;;;;;;0.36;100.00;97266.44;5033514;28;20063;-79
2024/01/18 07:37:14;;;;;;;63.92;38.53;;;;;;;0.41;100.00;97279.84;5033814;28;20556;-79
2024/01/18 07:39:42;;;;;;;73.95;40.17;;;;;;;0.18;100.00;97243.28;5034729;28;20022;-79
2024/01/18 07:42:08;;;;;;;70.88;41.85;;;;;;;0.28;100.00;97250.56;5034712;28;20025;-79
2024/01/18 07:44:34;;;;;;;80.47;45.28;;;;;;;0.37;100.00;97260.41;5034672;28;20095;-79
2024/01/18 07:47:00;;;;;;;80.13;43.50;;;;;;;0.22;100.00;97244.00;5034181;28;20084;-79
2024/01/18 07:49:25;;;;;;;79.78;44.50;;;;;;;0.47;100.00;97277.88;5034565;28;20368;-79
2024/01/18 07:51:51;;;;;;;68.70;41.63;;;;;;;0.39;100.00;97269.69;5034515;28;20453;-79
2024/01/18 07:54:17;;;;;;;70.80;38.75;;;;;;;0.32;100.00;97262.34;5034508;28;20017;-79
2024/01/18 07:56:42;;;;;;;69.20;39.25;;;;;;;0.21;100.00;97255.97;5034683;28;20022;-79
2024/01/18 07:59:08;;;;;;;69.95;40.97;;;;;;;0.41;100.00;97279.84;5034462;28;20043;-79
2024/01/18 08:01:33;;;;;;;75.53;41.65;;;;;;;0.30;100.00;97284.63;5034262;28;20018;-79
2024/01/18 08:03:59;;;;;;;69.88;39.78;;;;;;;0.19;100.00;97269.72;5033938;28;20021;-79
2024/01/18 08:06:25;;;;;;;69.70;40.67;;;;;;;0.13;100.00;97263.16;5034192;28;20064;-79
2024/01/18 08:08:50;;;;;;;65.53;40.72;;;;;;;0.33;100.00;97292.16;5033709;28;20029;-79
2024/01/18 08:11:16;;;;;;;70.30;40.67;;;;;;;0.31;100.00;97282.00;5034110;28;20018;-79
2024/01/18 08:13:41;;;;;;;67.57;40.40;;;;;;;0.41;100.00;97295.22;5034175;28;20400;-79
2024/01/18 08:16:07;;;;;;;72.90;39.33;;;;;;;0.14;100.00;97262.25;5033832;28;20496;-79
2024/01/18 08:18:33;;;;;;;65.20;38.72;;;;;;;0.35;100.00;97295.50;5034100;28;20448;-79
2024/01/18 08:20:58;;;;;;;72.15;39.75;;;;;;;0.31;100.00;97307.59;5034194;28;20022;-79
2024/01/18 08:23:24;;;;;;;67.43;40.60;;;;;;;0.28;100.00;97287.25;5033971;28;20022;-79
2024/01/18 08:25:50;;;;;;;70.35;41.00;;;;;;;0.29;100.00;97304.25;5033599;28;20154;-79
2024/01/18 08:28:15;;;;;;;70.90;40.35;;;;;;;0.34;100.00;97324.53;5033784;28;20167;-79
2024/01/18 08:30:41;;;;;;;69.05;38.53;;;;;;;0.38;100.00;97344.84;5033755;28;20679;-79
2024/01/18 08:33:08;;;;;;;71.97;40.40;;;;;;;0.36;100.00;97348.38;5033487;28;20037;-79
2024/01/18 08:35:34;;;;;;;79.43;45.67;;;;;;;0.28;100.00;97325.63;5033757;28;20099;-79
2024/01/18 08:38:00;;;;;;;73.22;42.20;;;;;;;0.22;100.00;97308.00;5033590;28;20099;-79
2024/01/18 08:40:25;;;;;;;75.47;41.28;;;;;;;0.47;100.00;97341.06;5033827;28;20405;-79
2024/01/18 08:42:51;;;;;;;78.35;45.08;;;;;;;0.30;100.00;97326.44;5033479;28;20527;-79
2024/01/18 08:45:27;;;;;;;79.22;44.97;;;;;;;0.35;100.00;97332.19;5033928;28;20092;-79
2024/01/18 08:47:53;;;;;;;80.18;45.88;;;;;;;0.46;100.00;97347.06;5033522;28;20025;-79
2024/01/18 08:50:19;;;;;;;79.63;44.78;;;;;;;0.42;100.00;97350.66;5033582;28;20108;-79
2024/01/18 08:52:45;;;;;;;77.80;43.53;;;;;;;0.30;100.00;97334.09;5033604;28;20476;-79
2024/01/18 08:55:10;;;;;;;96.28;50.65;;;;;;;0.47;100.00;97341.91;5033197;28;20029;-79
2024/01/18 08:57:36;;;;;;;92.88;50.88;;;;;;;0.53;100.00;97352.75;5033562;28;20036;-79
2024/01/18 09:00:02;;;;;;;78.88;43.60;;;;;;;0.31;100.00;97329.81;5033237;28;20017;-78
2024/01/18 09:02:28;;;;;;;78.38;44.33;;;;;;;0.32;100.00;97327.19;5033395;28;20108;-79
2024/01/18 09:04:54;;;;;;;76.25;43.63;;;;;;;0.62;100.00;97373.69;5032944;28;20044;-79
2024/01/18 09:07:21;;;;;;;89.03;50.05;;;;;;;0.38;100.00;97321.81;5033299;28;20512;-79
2024/01/18 09:09:46;;;;;;;85.43;48.97;;;;;;;0.56;100.00;97348.34;5033332;28;20040;-79
2024/01/18 09:12:13;;;;;;;85.00;50.20;;;;;;;0.57;100.00;97344.88;5033089;28;20433;-79
2024/01/18 09:14:38;;;;;;;82.65;48.35;;;;;;;0.83;100.00;97391.59;5031853;28;20083;-79
2024/01/18 09:17:04;;;;;;;79.72;46.60;;;;;;;0.90;100.00;97396.38;5034154;28;20022;-78
2024/01/18 09:19:32;;;;;;;106.20;56.42;;;;;;;0.86;100.00;97397.41;5033758;28;20113;-78
2024/01/18 09:22:00;;;;;;;94.15;52.83;;;;;;;0.88;100.00;97402.47;5031939;28;20052;-79
2024/01/18 09:24:26;;;;;;;92.10;46.90;;;;;;;0.84;100.00;97414.56;5031315;28;20021;-78
2024/01/18 09:26:58;;;;;;;89.75;49.83;;;;;;;0.65;100.00;97380.41;5032913;28;20488;-78
2024/01/18 09:29:24;;;;;;;84.22;46.60;;;;;;;0.85;100.00;97429.06;5032619;28;20483;-79
2024/01/18 09:31:49;;;;;;;77.80;45.00;;;;;;;0.58;100.00;97377.28;5032657;28;20100;-78
2024/01/18 09:34:15;;;;;;;76.53;44.15;;;;;;;0.68;100.00;97406.75;5032633;28;20021;-79
2024/01/18 09:36:41;;;;;;;78.30;43.05;;;;;;;0.56;100.00;97379.09;5032772;28;20046;-78
2024/01/18 09:39:15;;;;;;;82.07;46.28;;;;;;;0.64;100.00;97400.09;5032877;28;20434;-78
2024/01/18 09:41:48;;;;;;;91.45;50.55;;;;;;;0.71;100.00;97409.16;5032905;28;20030;-79
2024/01/18 09:44:17;;;;;;;104.82;54.42;;;;;;;0.50;100.00;97372.47;5032557;28;20029;-79
2024/01/18 09:46:43;;;;;;;104.88;53.55;;;;;;;0.70;100.00;97404.94;5032420;28;20585;-79
2024/01/18 09:49:10;;;;;;;89.18;50.65;;;;;;;0.75;100.00;97409.84;5032615;28;20120;-79
2024/01/18 09:51:37;;;;;;;86.70;48.92;;;;;;;0.45;100.00;97365.91;5032940;28;20113;-79
2024/01/18 09:54:05;;;;;;;80.05;45.70;;;;;;;0.57;100.00;97377.34;5029004;28;20155;-79
2024/01/18 09:56:36;;;;;;;133.95;69.95;;;;;;;0.77;100.00;97413.19;5029954;28;20633;-79
2024/01/18 09:59:07;;;;;;;93.82;51.58;;;;;;;0.60;100.00;97396.00;5031229;28;20021;-78
2024/01/18 10:01:36;;;;;;;78.75;44.58;;;;;;;0.51;100.00;97398.94;5032555;28;20051;-79
2024/01/18 10:04:03;;;;;;;79.90;46.25;;;;;;;0.58;100.00;97404.63;5034960;28;20013;-79
2024/01/18 10:06:29;;;;;;;90.18;50.47;;;;;;;0.79;100.00;97433.63;5032255;28;20025;-79
2024/01/18 10:08:55;;;;;;;88.30;49.80;;;;;;;0.71;100.00;97432.22;5034823;28;20084;-79
2024/01/18 10:11:30;;;;;;;98.65;50.42;;;;;;;0.67;100.00;97422.16;5034966;28;20013;-79
2024/01/18 10:13:59;;;;;;;84.60;47.38;;;;;;;0.47;100.00;97387.16;5033317;28;20714;-79
2024/01/18 10:16:29;;;;;;;88.05;46.20;;;;;;;0.27;100.00;97364.94;5034586;28;20395;-78
2024/01/18 10:19:01;;;;;;;78.82;45.58;;;;;;;0.17;100.00;97361.94;5034372;28;20025;-78
2024/01/18 10:21:33;;;;;;;70.93;40.65;;;;;;;0.17;100.00;97340.59;5016540;28;20025;-79
2024/01/18 10:24:06;;;;;;;96.93;48.75;;;;;;;0.45;100.00;97386.38;5014125;28;20048;-78
2024/01/18 10:26:35;;;;;;;116.53;58.33;;;;;;;0.69;100.00;97420.38;5028603;28;20028;-78
2024/01/18 10:29:02;;;;;;;147.85;69.53;;;;;;;0.81;100.00;97447.22;5031645;28;20060;-78
2024/01/18 10:31:28;;;;;;;89.45;48.83;;;;;;;0.55;100.00;97403.03;5034572;28;20047;-78
2024/01/18 10:33:55;;;;;;;74.93;41.95;;;;;;;0.66;100.00;97428.19;5034877;28;20500;-79
2024/01/18 10:36:21;;;;;;;70.03;41.33;;;;;;;0.65;100.00;97434.22;5034213;28;20017;-79
2024/01/18 10:38:50;;;;;;;76.00;44.42;;;;;;;0.58;100.00;97418.25;5034263;28;20048;-79
2024/01/18 10:41:21;;;;;;;144.77;61.10;;;;;;;0.95;100.00;97450.00;5035227;28;20037;-79
2024/01/18 10:43:50;;;;;;;132.90;62.55;;;;;;;0.71;100.00;97398.91;5035867;28;20041;-79
2024/01/18 10:46:21;;;;;;;189.43;81.75;;;;;;;0.34;100.00;97360.38;5035629;28;20060;-78
2024/01/18 10:48:47;;;;;;;214.40;82.97;;;;;;;0.50;100.00;97392.97;5035783;28;20029;-79
2024/01/18 10:51:12;;;;;;;284.23;90.35;;;;;;;0.49;100.00;97434.84;5035893;28;20445;-79
2024/01/18 10:53:38;;;;;;;147.07;61.78;;;;;;;0.30;100.00;97435.69;5035982;28;20040;-78
2024/01/18 10:56:04;;;;;;;114.18;58.47;;;;;;;0.15;100.00;97414.09;5035541;28;20361;-78
2024/01/18 10:58:34;;;;;;;143.85;67.05;;;;;;;0.11;100.00;97433.84;5035328;28;20066;-79
2024/01/18 11:01:03;;;;;;;119.43;62.03;;;;;;;0.10;100.00;97454.41;5049472;28;20037;-78
2024/01/18 11:03:29;;;;;;;103.32;48.97;;;;;;;-0.30;100.00;97417.56;5035393;28;20468;-78
2024/01/18 11:05:55;;;;;;;164.38;60.30;;;;;;;-0.07;100.00;97471.25;5035642;28;20022;-78
2024/01/18 11:08:23;;;;;;;125.65;56.72;;;;;;;-0.01;100.00;97460.75;5035588;28;20021;-79
2024/01/18 11:10:49;;;;;;;119.53;54.60;;;;;;;0.11;100.00;97466.28;5035566;28;20029;-78
2024/01/18 11:13:16;;;;;;;91.03;48.78;;;;;;;0.05;100.00;97456.31;5033966;28;20018;-78